CheckWX is a tool to help pilots better visualize weather data.  It is not intended as a substitute for an official pre-flight weather briefing.

01:47:02 UTC

KMLS TAF
Frank Wiley Field Airport
Miles City, Montana, USA
KMLS 182320Z 1900/1924 29010G22KT P6SM SKC FM190100 14008KT P6SM FEW200 FM191900 30012G20KT P6SM SKC

Aug-19@
00:00 UTC

Aug-19 @ 00:00 UTC

Aug-19@
01:00 UTC

Aug-19 @ 01:00 UTC

KMLS 182320Z 1900/1924 29010G22KT P6SM SKC

Expired

Wind
  • 290° at 10 KTS
  • {Gusting to 22 KTS
Cloud Levels
  • Clear skies

Aug-19@
01:00 UTC

Aug-19 @ 01:00 UTC

Aug-19@
19:00 UTC

Aug-19 @ 19:00 UTC

FM190100 14008KT P6SM FEW200

From

From Standard forecast or significant change

Wind
  • 140° at 8 KTS
Cloud Levels
  • Few at 20,000' AGL

Aug-19@
19:00 UTC

Aug-19 @ 19:00 UTC

Aug-20@
00:00 UTC

Aug-20 @ 00:00 UTC

FM191900 30012G20KT P6SM SKC

From

From Standard forecast or significant change

Wind
  • 300° at 12 KTS
  • {Gusting to 20 KTS
Cloud Levels
  • Clear skies